Time;durP1;ratioP1;P1;durP2;ratioP2;P2;SDS_P1;SDS_P2;PMS_P1;PMS_P2;Temp;Humidity;BMP_temperature;BMP_pressure;BME280_temperature;BME280_humidity;BME280_pressure;Samples;Min_cycle;Max_cycle;Signal;HPM_P1;HPM_P2
2022/05/09 00:00:01;;;;;;;8.73;5.60;;;16.50;91.90;;;;;;5089436;28;20438;-76
2022/05/09 00:02:47;;;;;;;6.93;5.87;;;16.30;92.30;;;;;;5089024;28;20525;-76
2022/05/09 00:05:34;;;;;;;7.17;5.27;;;16.20;92.90;;;;;;5091327;28;20972;-76
2022/05/09 00:08:20;;;;;;;8.00;5.60;;;16.20;93.20;;;;;;5097130;28;20417;-76
2022/05/09 00:11:06;;;;;;;7.17;6.10;;;16.20;93.70;;;;;;5086807;28;20488;-76
2022/05/09 00:13:52;;;;;;;12.93;7.17;;;16.10;93.70;;;;;;5093802;28;20512;-75
2022/05/09 00:16:38;;;;;;;8.60;6.20;;;16.00;94.00;;;;;;5094447;28;20819;-76
2022/05/09 00:19:24;;;;;;;9.97;6.23;;;15.90;94.50;;;;;;5086843;28;20525;-75
2022/05/09 00:22:11;;;;;;;6.60;6.00;;;15.80;95.00;;;;;;5093415;28;20458;-75
2022/05/09 00:25:00;;;;;;;10.57;5.83;;;15.80;95.30;;;;;;5096102;28;20432;-75
2022/05/09 00:27:46;;;;;;;10.43;7.30;;;15.70;95.90;;;;;;5100901;28;20803;-77
2022/05/09 00:30:32;;;;;;;5.90;5.30;;;15.60;96.40;;;;;;5088226;28;20915;-76
2022/05/09 00:33:17;;;;;;;10.93;6.37;;;15.70;96.60;;;;;;5094026;28;20449;-75
2022/05/09 00:36:03;;;;;;;7.23;6.43;;;15.70;96.90;;;;;;5081392;28;20453;-76
2022/05/09 00:38:51;;;;;;;7.00;6.00;;;15.50;98.20;;;;;;5093238;28;20449;-76
2022/05/09 00:41:37;;;;;;;8.03;6.57;;;15.50;99.10;;;;;;5099015;28;20420;-76
2022/05/09 00:44:25;;;;;;;9.83;6.20;;;15.30;99.40;;;;;;5084367;28;20454;-76
2022/05/09 00:47:11;;;;;;;8.40;6.43;;;15.30;99.90;;;;;;5085172;28;20430;-76
2022/05/09 00:50:00;;;;;;;9.73;6.43;;;15.20;99.90;;;;;;5090893;28;20562;-76
2022/05/09 00:52:52;;;;;;;6.73;6.00;;;15.10;99.90;;;;;;5086076;28;20481;-75
2022/05/09 00:55:44;;;;;;;9.70;7.47;;;15.10;99.90;;;;;;5093016;28;20469;-75
2022/05/09 00:58:39;;;;;;;9.70;6.27;;;14.80;99.90;;;;;;5080671;28;20454;-75
2022/05/09 01:01:24;;;;;;;9.33;7.33;;;14.80;99.90;;;;;;5080495;28;20796;-74
2022/05/09 01:04:13;;;;;;;7.83;6.60;;;14.80;99.90;;;;;;5089602;28;20441;-75
2022/05/09 01:06:59;;;;;;;9.17;6.30;;;14.80;99.90;;;;;;5088827;28;20458;-75
2022/05/09 01:09:46;;;;;;;9.63;7.33;;;14.90;99.90;;;;;;5078420;28;20446;-75
2022/05/09 01:12:36;;;;;;;8.40;6.90;;;14.90;99.90;;;;;;5090015;28;20449;-75
2022/05/09 01:15:22;;;;;;;8.83;6.73;;;14.90;99.90;;;;;;5088853;28;20478;-75
2022/05/09 01:18:11;;;;;;;8.37;7.57;;;15.00;99.90;;;;;;5079608;28;20446;-75
2022/05/09 01:20:57;;;;;;;7.90;6.83;;;14.90;99.90;;;;;;5089741;28;20789;-75
2022/05/09 01:23:44;;;;;;;7.53;6.73;;;15.00;99.90;;;;;;5082630;28;20430;-75
2022/05/09 01:26:30;;;;;;;7.43;6.53;;;15.00;99.90;;;;;;5093552;28;20442;-75
2022/05/09 01:29:22;;;;;;;9.97;7.90;;;15.00;99.90;;;;;;5083473;28;20434;-75
2022/05/09 01:32:11;;;;;;;8.37;7.23;;;14.90;99.90;;;;;;5089669;28;20427;-75
2022/05/09 01:35:02;;;;;;;8.17;7.03;;;14.90;99.90;;;;;;5081047;28;20623;-75
2022/05/09 01:37:53;;;;;;;10.53;6.57;;;14.80;99.90;;;;;;5082824;28;20420;-75
2022/05/09 01:40:40;;;;;;;8.30;6.87;;;14.80;99.90;;;;;;5088517;28;20445;-75
2022/05/09 01:43:37;;;;;;;8.50;6.80;;;14.70;99.90;;;;;;5090115;28;20445;-75
2022/05/09 01:46:26;;;;;;;9.40;6.90;;;14.70;99.90;;;;;;5084255;28;20930;-75
2022/05/09 01:52:16;;;;;;;10.07;7.43;;;14.70;99.90;;;;;;5089691;28;20987;-75
2022/05/09 01:55:01;;;;;;;12.57;7.30;;;14.70;99.90;;;;;;5075851;28;20442;-75
2022/05/09 01:57:49;;;;;;;8.63;7.10;;;14.60;99.90;;;;;;5084564;28;20503;-74
2022/05/09 02:00:35;;;;;;;7.70;6.87;;;14.60;99.90;;;;;;5093359;28;20461;-75
2022/05/09 02:03:20;;;;;;;8.40;6.70;;;14.50;99.90;;;;;;5084493;28;20426;-75
2022/05/09 02:06:08;;;;;;;10.87;7.17;;;14.50;99.90;;;;;;5088910;28;20433;-75
2022/05/09 02:08:54;;;;;;;8.10;6.67;;;14.30;99.90;;;;;;5084272;28;20531;-75
2022/05/09 02:11:40;;;;;;;9.13;7.33;;;14.20;99.90;;;;;;5087366;28;20911;-75
2022/05/09 02:14:27;;;;;;;8.63;6.90;;;14.20;99.90;;;;;;5089758;28;20957;-75
2022/05/09 02:17:13;;;;;;;6.10;5.50;;;14.00;99.90;;;;;;5090037;28;20444;-75
2022/05/09 02:19:59;;;;;;;7.00;6.03;;;14.10;99.90;;;;;;5093568;28;20450;-75
2022/05/09 02:22:45;;;;;;;13.93;7.13;;;14.10;99.90;;;;;;5098853;28;20399;-75
2022/05/09 02:25:31;;;;;;;7.20;6.20;;;14.10;99.90;;;;;;5090496;28;20441;-75
2022/05/09 02:28:16;;;;;;;8.87;6.57;;;13.90;99.90;;;;;;5083189;28;20480;-75
2022/05/09 02:31:04;;;;;;;8.90;7.60;;;13.80;99.90;;;;;;5093406;28;20489;-75
2022/05/09 02:33:50;;;;;;;8.50;6.97;;;13.80;99.90;;;;;;5093220;28;20502;-75
2022/05/09 02:36:35;;;;;;;12.03;7.07;;;13.80;99.90;;;;;;5102138;28;20448;-75
2022/05/09 02:39:21;;;;;;;8.73;7.10;;;13.70;99.90;;;;;;5091742;28;20448;-75
2022/05/09 02:42:07;;;;;;;8.70;7.80;;;13.80;99.90;;;;;;5093746;28;20424;-75
2022/05/09 02:44:54;;;;;;;12.27;7.07;;;13.60;99.90;;;;;;5093876;28;20428;-75
2022/05/09 02:47:41;;;;;;;8.67;7.13;;;13.70;99.90;;;;;;5091236;28;20527;-74
2022/05/09 02:50:28;;;;;;;7.07;6.37;;;13.60;99.90;;;;;;5092468;28;20452;-75
2022/05/09 02:53:13;;;;;;;9.03;7.33;;;13.60;99.90;;;;;;5091052;28;20445;-75
2022/05/09 02:55:59;;;;;;;10.80;7.80;;;13.50;99.90;;;;;;5100199;28;20465;-75
2022/05/09 02:58:45;;;;;;;7.73;6.90;;;13.40;99.90;;;;;;5083636;28;20519;-75
2022/05/09 03:01:30;;;;;;;9.77;6.77;;;13.40;99.90;;;;;;5088647;28;20448;-75
2022/05/09 03:07:22;;;;;;;12.10;7.67;;;13.40;99.90;;;;;;5079032;28;20474;-75
2022/05/09 03:10:08;;;;;;;9.43;6.83;;;13.30;99.90;;;;;;5090927;28;20445;-75
2022/05/09 03:12:53;;;;;;;7.23;6.40;;;13.40;99.90;;;;;;5092745;28;20421;-75
2022/05/09 03:15:42;;;;;;;8.03;7.23;;;13.30;99.90;;;;;;5089991;28;20481;-75
2022/05/09 03:18:27;;;;;;;8.33;7.27;;;13.30;99.90;;;;;;5088903;28;20488;-75
2022/05/09 03:21:14;;;;;;;13.53;6.97;;;13.30;99.90;;;;;;5098333;28;20462;-75
2022/05/09 03:24:00;;;;;;;11.37;7.20;;;13.20;99.90;;;;;;5090311;28;20915;-75
2022/05/09 03:26:45;;;;;;;11.40;7.80;;;13.20;99.90;;;;;;5084490;28;20483;-75
2022/05/09 03:29:31;;;;;;;10.80;7.53;;;13.30;99.90;;;;;;5086134;28;20423;-75
2022/05/09 03:32:17;;;;;;;9.10;7.40;;;13.20;99.90;;;;;;5085755;28;20804;-74
2022/05/09 03:35:02;;;;;;;11.90;7.50;;;13.10;99.90;;;;;;5086900;28;20439;-75
2022/05/09 03:37:49;;;;;;;10.70;7.30;;;12.80;99.90;;;;;;5093722;28;20528;-75
2022/05/09 03:40:35;;;;;;;11.00;6.80;;;12.90;99.90;;;;;;5089010;28;20580;-75
2022/05/09 03:43:21;;;;;;;9.70;6.47;;;12.80;99.90;;;;;;5092505;28;20472;-75
2022/05/09 03:46:07;;;;;;;11.00;7.77;;;12.70;99.90;;;;;;5082936;28;20450;-75
2022/05/09 03:48:52;;;;;;;7.90;6.83;;;12.80;99.90;;;;;;5090520;28;20454;-75
2022/05/09 03:51:38;;;;;;;12.33;7.47;;;12.80;99.90;;;;;;5090774;28;20427;-75
2022/05/09 03:54:25;;;;;;;8.27;7.33;;;12.80;99.90;;;;;;5087678;28;20433;-75
2022/05/09 03:57:11;;;;;;;8.50;7.47;;;12.70;99.90;;;;;;5081230;28;20977;-75
2022/05/09 04:00:02;;;;;;;8.30;7.37;;;12.70;99.90;;;;;;5094278;28;20794;-75
2022/05/09 04:02:48;;;;;;;11.40;7.30;;;12.70;99.90;;;;;;5090456;28;20910;-74
2022/05/09 04:05:35;;;;;;;9.80;6.93;;;12.70;99.90;;;;;;5088476;28;20468;-75
2022/05/09 04:08:22;;;;;;;10.67;7.80;;;12.70;99.90;;;;;;5087970;28;20424;-75
2022/05/09 04:11:08;;;;;;;10.63;7.60;;;12.80;99.90;;;;;;5080178;28;20483;-75
2022/05/09 04:13:54;;;;;;;8.37;7.07;;;12.70;99.90;;;;;;5089369;28;20474;-76
2022/05/09 04:16:51;;;;;;;9.20;7.47;;;12.70;99.90;;;;;;5080308;28;20474;-75
2022/05/09 04:19:36;;;;;;;12.63;8.47;;;12.60;99.90;;;;;;5081000;28;20442;-75
2022/05/09 04:22:22;;;;;;;10.60;7.73;;;12.60;99.90;;;;;;5085231;28;20473;-75
2022/05/09 04:25:09;;;;;;;9.43;8.50;;;12.60;99.90;;;;;;5082967;28;21014;-75
2022/05/09 04:27:57;;;;;;;8.03;7.23;;;12.60;99.90;;;;;;5103924;28;20473;-75
2022/05/09 04:30:43;;;;;;;9.70;7.83;;;12.60;99.90;;;;;;5091965;28;20798;-75
2022/05/09 04:33:29;;;;;;;9.93;7.57;;;12.70;99.90;;;;;;5088996;28;20982;-75
2022/05/09 04:36:15;;;;;;;8.20;6.83;;;12.80;99.90;;;;;;5077872;28;20456;-75
2022/05/09 04:39:01;;;;;;;9.83;8.13;;;12.80;99.90;;;;;;5083905;28;20480;-76
2022/05/09 04:41:46;;;;;;;8.30;7.50;;;12.90;99.90;;;;;;5087313;28;21019;-77
2022/05/09 04:44:34;;;;;;;10.00;7.50;;;12.90;99.90;;;;;;5091055;28;20468;-76
2022/05/09 04:47:19;;;;;;;10.77;7.70;;;12.90;99.90;;;;;;5094302;28;20797;-77
2022/05/09 04:50:06;;;;;;;9.67;7.40;;;13.00;99.90;;;;;;5088398;28;20491;-76
2022/05/09 04:52:53;;;;;;;9.30;7.43;;;13.00;99.90;;;;;;5089533;28;20453;-76
2022/05/09 04:55:39;;;;;;;13.37;7.53;;;13.10;99.90;;;;;;5085710;28;20473;-76
2022/05/09 04:58:25;;;;;;;9.07;7.47;;;13.20;99.90;;;;;;5087267;28;20430;-76
2022/05/09 05:01:12;;;;;;;11.43;8.57;;;13.20;99.90;;;;;;5083638;28;20412;-77
2022/05/09 05:03:59;;;;;;;9.37;8.37;;;13.30;99.90;;;;;;5088674;28;20461;-76
2022/05/09 05:06:45;;;;;;;8.97;8.07;;;13.50;99.90;;;;;;5080579;28;20420;-77
2022/05/09 05:09:31;;;;;;;8.67;7.53;;;13.60;99.90;;;;;;5095113;28;20572;-76
2022/05/09 05:12:17;;;;;;;10.27;8.30;;;13.50;99.90;;;;;;5095664;28;20454;-76
2022/05/09 05:15:02;;;;;;;9.57;8.40;;;13.70;99.90;;;;;;5085201;28;20543;-76
2022/05/09 05:17:50;;;;;;;11.10;9.30;;;13.70;99.90;;;;;;5074456;28;20508;-76
2022/05/09 05:20:36;;;;;;;8.77;7.80;;;13.90;99.90;;;;;;5091456;28;20798;-76
2022/05/09 05:23:22;;;;;;;10.50;8.77;;;13.90;99.90;;;;;;5085599;28;20441;-77
2022/05/09 05:26:08;;;;;;;8.93;8.03;;;14.00;99.90;;;;;;5079817;28;20501;-76
2022/05/09 05:28:54;;;;;;;9.77;7.93;;;14.00;99.90;;;;;;5090253;28;20414;-76
2022/05/09 05:31:40;;;;;;;16.13;9.10;;;14.20;99.90;;;;;;5090092;28;20450;-76
2022/05/09 05:34:27;;;;;;;9.33;8.20;;;14.20;99.90;;;;;;5095692;28;20452;-76
2022/05/09 05:37:12;;;;;;;17.97;7.67;;;14.40;99.90;;;;;;5077570;28;20464;-76
2022/05/09 05:39:58;;;;;;;12.93;8.40;;;14.50;99.90;;;;;;5089548;28;20534;-76
2022/05/09 05:42:45;;;;;;;10.60;7.53;;;14.60;99.90;;;;;;5088493;28;20462;-77
2022/05/09 05:45:30;;;;;;;11.10;8.37;;;14.80;99.90;;;;;;5086165;28;20844;-77
2022/05/09 05:48:16;;;;;;;12.07;8.10;;;14.80;99.90;;;;;;5092898;28;20421;-76
2022/05/09 05:51:03;;;;;;;15.80;7.43;;;14.90;99.90;;;;;;5095197;28;20447;-76
2022/05/09 05:53:49;;;;;;;9.83;7.40;;;15.10;99.90;;;;;;5084526;28;21155;-77
2022/05/09 05:56:37;;;;;;;11.83;7.47;;;15.20;99.90;;;;;;5087961;28;20465;-76
2022/05/09 05:59:25;;;;;;;11.93;7.30;;;15.40;99.90;;;;;;5084588;28;20441;-77
2022/05/09 06:02:11;;;;;;;10.17;7.10;;;15.60;99.90;;;;;;5087588;28;20524;-76
2022/05/09 06:04:56;;;;;;;8.47;7.57;;;15.70;99.90;;;;;;5091230;28;21152;-76
2022/05/09 06:07:43;;;;;;;9.27;6.90;;;15.80;99.90;;;;;;5079902;28;20860;-76
2022/05/09 06:10:30;;;;;;;7.87;7.07;;;15.90;99.90;;;;;;5092928;28;20448;-76
2022/05/09 06:13:16;;;;;;;8.43;6.70;;;16.10;99.90;;;;;;5090693;28;20449;-76
2022/05/09 06:16:01;;;;;;;7.77;6.27;;;16.30;99.90;;;;;;5095958;28;20580;-76
2022/05/09 06:18:51;;;;;;;7.73;6.33;;;16.40;99.90;;;;;;5091611;28;20437;-76
2022/05/09 06:21:38;;;;;;;7.83;5.57;;;16.60;99.90;;;;;;5090967;28;20484;-76
2022/05/09 06:24:25;;;;;;;9.20;6.03;;;16.70;99.90;;;;;;5088426;28;20537;-76
2022/05/09 06:27:11;;;;;;;9.70;6.67;;;16.80;99.90;;;;;;5087106;28;20770;-76
2022/05/09 06:29:57;;;;;;;10.87;6.17;;;16.90;99.90;;;;;;5094363;28;20563;-76
2022/05/09 06:32:43;;;;;;;11.00;5.60;;;17.00;99.90;;;;;;5092233;28;20425;-76
2022/05/09 06:35:29;;;;;;;7.47;5.73;;;17.20;99.90;;;;;;5089864;28;22436;-76
2022/05/09 06:38:16;;;;;;;12.73;5.73;;;17.40;99.90;;;;;;5097380;28;20435;-77
2022/05/09 06:41:03;;;;;;;7.90;5.00;;;17.30;98.90;;;;;;5086831;28;20496;-76
2022/05/09 06:43:49;;;;;;;7.40;5.13;;;17.40;96.80;;;;;;5083774;28;20850;-76
2022/05/09 06:46:35;;;;;;;12.00;5.87;;;17.50;97.40;;;;;;5085189;28;20442;-76
2022/05/09 06:49:20;;;;;;;8.73;5.80;;;17.60;97.40;;;;;;5099620;28;20933;-76
2022/05/09 06:52:07;;;;;;;8.20;6.33;;;17.70;97.00;;;;;;5083061;28;20445;-76
2022/05/09 06:54:52;;;;;;;12.80;6.00;;;17.70;95.90;;;;;;5084211;28;20469;-76
2022/05/09 06:57:41;;;;;;;8.80;5.40;;;17.80;95.10;;;;;;5089898;28;20469;-76
2022/05/09 07:00:27;;;;;;;9.37;5.47;;;17.90;95.60;;;;;;5107391;28;20449;-76
2022/05/09 07:03:13;;;;;;;6.33;4.40;;;18.00;94.90;;;;;;5087980;28;20445;-77
2022/05/09 07:06:00;;;;;;;6.60;4.57;;;18.10;94.00;;;;;;5086506;28;20474;-76
2022/05/09 07:08:46;;;;;;;10.07;5.33;;;18.10;93.50;;;;;;5088913;28;20469;-76
2022/05/09 07:11:31;;;;;;;5.40;4.50;;;18.20;90.90;;;;;;5087856;28;20762;-76
2022/05/09 07:14:18;;;;;;;10.10;5.43;;;18.30;92.10;;;;;;5083554;28;20473;-76
2022/05/09 07:17:05;;;;;;;7.27;5.60;;;18.30;91.40;;;;;;5088066;28;20611;-76
2022/05/09 07:19:50;;;;;;;7.13;5.33;;;18.40;90.70;;;;;;5087770;28;20828;-76
2022/05/09 07:22:35;;;;;;;5.90;4.70;;;18.50;90.00;;;;;;5091265;28;20461;-76
2022/05/09 07:25:21;;;;;;;6.50;5.03;;;18.50;89.10;;;;;;5083604;28;20997;-76
2022/05/09 07:28:09;;;;;;;8.47;5.00;;;18.60;90.10;;;;;;5084851;28;20434;-77
2022/05/09 07:30:57;;;;;;;6.00;5.33;;;18.70;89.30;;;;;;5091330;28;20958;-76
2022/05/09 07:33:44;;;;;;;10.43;5.50;;;18.80;90.20;;;;;;5089371;28;20833;-77
2022/05/09 07:36:30;;;;;;;8.17;5.60;;;18.90;90.80;;;;;;5089380;28;20504;-77
2022/05/09 07:39:15;;;;;;;6.87;5.73;;;19.00;89.00;;;;;;5089151;28;20583;-76
2022/05/09 07:42:01;;;;;;;6.80;5.10;;;19.00;88.80;;;;;;5087103;28;20438;-76
2022/05/09 07:44:46;;;;;;;7.00;5.07;;;19.10;89.30;;;;;;5082094;28;21002;-76
2022/05/09 07:47:33;;;;;;;7.57;5.00;;;19.10;85.80;;;;;;5099798;28;20486;-77
2022/05/09 07:50:20;;;;;;;8.13;4.93;;;19.20;87.80;;;;;;5096790;28;20507;-76
2022/05/09 07:53:10;;;;;;;8.50;4.70;;;19.20;87.80;;;;;;5097078;28;20904;-75
2022/05/09 07:55:56;;;;;;;7.23;5.40;;;19.30;86.30;;;;;;5086309;28;20459;-76
2022/05/09 07:58:41;;;;;;;7.73;5.17;;;19.30;84.70;;;;;;5095833;28;20478;-77
2022/05/09 08:01:27;;;;;;;7.60;5.00;;;19.40;86.10;;;;;;5098125;28;21205;-76
2022/05/09 08:04:14;;;;;;;8.50;5.23;;;19.40;85.30;;;;;;5079985;28;20508;-76
2022/05/09 08:07:01;;;;;;;11.00;5.73;;;19.40;84.10;;;;;;5078869;28;20421;-75
2022/05/09 08:09:47;;;;;;;6.20;4.57;;;19.50;85.70;;;;;;5090647;28;20958;-76
2022/05/09 08:12:32;;;;;;;7.80;4.97;;;19.60;83.70;;;;;;5084935;28;20466;-76
2022/05/09 08:15:20;;;;;;;10.97;5.33;;;19.70;83.10;;;;;;5085802;28;20595;-75
2022/05/09 08:18:06;;;;;;;7.67;5.27;;;19.70;83.70;;;;;;5088658;28;20461;-77
2022/05/09 08:20:55;;;;;;;10.40;4.90;;;19.80;82.30;;;;;;5104052;28;20457;-77
2022/05/09 08:23:41;;;;;;;4.93;4.33;;;19.80;79.70;;;;;;5092734;28;20458;-77
2022/05/09 08:26:27;;;;;;;9.93;5.67;;;19.90;80.60;;;;;;5103577;28;20449;-76
2022/05/09 08:29:12;;;;;;;7.30;5.40;;;19.90;80.40;;;;;;5081909;28;20433;-77
2022/05/09 08:31:58;;;;;;;7.27;4.90;;;20.00;79.10;;;;;;5092188;28;20453;-76
2022/05/09 08:34:44;;;;;;;7.90;5.17;;;20.10;80.60;;;;;;5085917;28;20471;-74
2022/05/09 08:37:31;;;;;;;6.27;4.83;;;20.10;79.40;;;;;;5097127;28;20468;-77
2022/05/09 08:40:20;;;;;;;8.07;4.90;;;20.30;78.60;;;;;;5086755;28;20954;-76
2022/05/09 08:43:17;;;;;;;5.70;5.00;;;20.40;77.70;;;;;;5087820;28;20446;-75
2022/05/09 08:46:11;;;;;;;8.03;5.07;;;20.50;79.90;;;;;;5096300;28;20813;-74
2022/05/09 08:49:23;;;;;;;6.77;5.07;;;20.50;76.60;;;;;;5106318;28;20438;-74
2022/05/09 08:52:18;;;;;;;10.80;5.07;;;20.60;76.50;;;;;;5086937;28;20438;-76
2022/05/09 08:55:06;;;;;;;9.33;4.83;;;20.50;76.60;;;;;;5084396;28;20510;-75
2022/05/09 08:57:57;;;;;;;7.60;5.73;;;20.70;75.20;;;;;;5090509;28;20475;-74
2022/05/09 09:00:43;;;;;;;5.13;4.20;;;20.70;73.30;;;;;;5104246;28;20437;-75
2022/05/09 09:03:32;;;;;;;6.63;4.70;;;20.80;71.40;;;;;;5088526;28;20556;-75
2022/05/09 09:06:32;;;;;;;5.73;4.47;;;20.90;73.50;;;;;;5090753;28;20425;-75
2022/05/09 09:09:31;;;;;;;7.10;4.73;;;20.90;72.60;;;;;;5094994;28;20424;-74
2022/05/09 09:12:27;;;;;;;6.70;4.40;;;21.00;71.40;;;;;;5092050;28;20426;-75
2022/05/09 09:15:24;;;;;;;5.77;4.07;;;21.10;71.60;;;;;;5082768;28;21037;-75
2022/05/09 09:18:42;;;;;;;9.23;4.70;;;21.10;71.80;;;;;;5090447;28;20479;-75
2022/05/09 09:21:39;;;;;;;5.53;4.40;;;21.30;72.80;;;;;;5101715;28;20436;-75
2022/05/09 09:24:44;;;;;;;10.03;4.87;;;21.40;71.00;;;;;;5076183;28;20552;-75
2022/05/09 09:27:40;;;;;;;6.23;4.83;;;21.50;66.60;;;;;;5094678;28;20807;-76
2022/05/09 09:30:27;;;;;;;7.93;5.57;;;21.60;72.60;;;;;;5088863;28;20521;-73
2022/05/09 09:33:15;;;;;;;6.17;4.37;;;21.70;69.70;;;;;;5081579;28;20540;-73
2022/05/09 09:36:07;;;;;;;6.40;4.70;;;21.80;67.10;;;;;;5084964;28;20596;-73
2022/05/09 09:38:58;;;;;;;9.77;5.07;;;21.80;66.40;;;;;;5088381;28;20470;-73
2022/05/09 09:41:44;;;;;;;8.83;5.43;;;22.00;66.50;;;;;;5088919;28;20426;-73
2022/05/09 09:44:34;;;;;;;5.47;4.40;;;22.10;64.90;;;;;;5081323;28;20458;-73
2022/05/09 09:47:24;;;;;;;6.93;4.37;;;22.00;59.60;;;;;;5091811;28;20445;-73
2022/05/09 09:50:17;;;;;;;7.00;4.20;;;22.00;59.80;;;;;;5089416;28;20780;-73
2022/05/09 09:53:03;;;;;;;8.90;4.70;;;22.00;62.30;;;;;;5082017;28;20453;-72
2022/05/09 09:56:00;;;;;;;6.03;4.40;;;22.10;62.40;;;;;;5086280;28;20474;-72
2022/05/09 09:58:46;;;;;;;5.33;3.90;;;22.20;62.10;;;;;;5085777;28;20473;-73
2022/05/09 10:01:34;;;;;;;6.67;4.27;;;22.40;62.20;;;;;;5085384;28;20477;-73
2022/05/09 10:04:27;;;;;;;8.27;4.37;;;22.40;55.90;;;;;;5084612;28;20465;-73
2022/05/09 10:07:16;;;;;;;7.60;4.60;;;22.30;55.80;;;;;;5077811;28;20546;-73
2022/05/09 10:10:11;;;;;;;6.23;4.40;;;22.10;55.60;;;;;;5093765;28;20511;-73
2022/05/09 10:12:59;;;;;;;8.13;4.40;;;22.20;56.50;;;;;;5082918;28;20822;-73
2022/05/09 10:15:45;;;;;;;7.30;4.80;;;22.20;58.70;;;;;;5089393;28;20981;-73
2022/05/09 10:18:34;;;;;;;8.70;4.87;;;22.40;60.10;;;;;;5090389;28;21008;-73
2022/05/09 10:27:32;;;;;;;5.40;4.47;;;22.80;56.30;;;;;;5084910;28;20461;-74
2022/05/09 10:30:37;;;;;;;4.87;3.87;;;22.80;56.40;;;;;;5082261;28;20532;-73
2022/05/09 10:33:31;;;;;;;9.77;4.50;;;22.90;51.60;;;;;;5083965;28;20514;-74
2022/05/09 10:36:25;;;;;;;4.93;4.33;;;22.80;55.10;;;;;;5093493;28;20426;-74
2022/05/09 10:39:17;;;;;;;9.13;4.40;;;22.90;56.40;;;;;;5100445;28;20518;-73
2022/05/09 10:42:06;;;;;;;5.17;3.93;;;23.10;54.30;;;;;;5090696;28;20450;-73
2022/05/09 10:45:01;;;;;;;5.53;4.10;;;23.20;48.90;;;;;;5091870;28;20466;-73
2022/05/09 10:47:52;;;;;;;6.00;4.60;;;23.30;52.80;;;;;;5097524;28;20434;-73
2022/05/09 10:50:49;;;;;;;5.20;4.60;;;23.20;50.90;;;;;;5093304;28;20441;-73
2022/05/09 10:53:43;;;;;;;6.67;4.37;;;23.20;55.10;;;;;;5087682;28;20822;-73
2022/05/09 10:56:36;;;;;;;7.70;4.23;;;23.40;49.90;;;;;;5083425;28;20442;-73
2022/05/09 10:59:26;;;;;;;8.93;4.67;;;23.50;52.10;;;;;;5092159;28;21052;-73
2022/05/09 11:02:19;;;;;;;8.77;4.07;;;23.60;48.50;;;;;;5090625;28;20527;-73
2022/05/09 11:05:07;;;;;;;7.03;4.50;;;23.50;47.20;;;;;;5093138;28;20989;-73
2022/05/09 11:07:59;;;;;;;4.17;3.70;;;23.40;47.70;;;;;;5089759;28;20434;-73
2022/05/09 11:10:51;;;;;;;5.67;3.90;;;23.50;47.10;;;;;;5102697;28;20477;-73
2022/05/09 11:13:52;;;;;;;7.90;4.00;;;23.60;53.10;;;;;;5077428;28;20439;-73
2022/05/09 11:16:51;;;;;;;7.67;4.03;;;23.90;49.20;;;;;;5097059;28;20517;-73
2022/05/09 11:19:49;;;;;;;6.90;4.17;;;24.10;48.60;;;;;;5095325;28;20485;-73
2022/05/09 11:22:43;;;;;;;5.30;3.87;;;24.40;47.50;;;;;;5084142;28;20461;-74
2022/05/09 11:25:51;;;;;;;5.10;4.20;;;24.60;44.70;;;;;;5088535;28;20465;-73
2022/05/09 11:29:07;;;;;;;10.47;4.30;;;24.70;40.90;;;;;;5086074;28;20446;-73
2022/05/09 11:32:10;;;;;;;6.93;4.07;;;24.80;40.30;;;;;;5089712;28;20437;-74
2022/05/09 11:35:32;;;;;;;5.83;3.70;;;25.00;44.50;;;;;;5096564;28;20590;-73
2022/05/09 11:38:34;;;;;;;10.70;4.50;;;25.20;42.00;;;;;;5101518;28;20519;-73
2022/05/09 11:41:32;;;;;;;7.33;4.47;;;25.30;42.50;;;;;;5090707;28;20466;-73
2022/05/09 11:44:20;;;;;;;6.57;4.10;;;25.50;39.70;;;;;;5089372;28;20457;-73
2022/05/09 11:47:30;;;;;;;7.03;4.03;;;25.50;38.60;;;;;;5090099;28;20750;-73
2022/05/09 11:50:27;;;;;;;4.90;4.30;;;25.60;38.60;;;;;;5098868;28;20445;-73
2022/05/09 11:53:14;;;;;;;6.53;4.07;;;25.70;38.30;;;;;;5092928;28;20439;-73
2022/05/09 11:56:05;;;;;;;5.10;4.23;;;25.80;40.00;;;;;;5094985;28;20537;-74
2022/05/09 11:58:53;;;;;;;5.43;4.10;;;25.70;41.00;;;;;;5100389;28;20473;-74
2022/05/09 12:01:57;;;;;;;4.50;3.80;;;25.70;42.10;;;;;;5089123;28;20445;-74
2022/05/09 12:04:44;;;;;;;10.07;3.83;;;25.80;40.00;;;;;;5099864;28;21005;-73
2022/05/09 12:07:51;;;;;;;6.00;4.10;;;26.00;38.50;;;;;;5106206;28;20800;-74
2022/05/09 12:10:38;;;;;;;7.60;4.30;;;26.30;36.60;;;;;;5092467;28;20437;-73
2022/05/09 12:14:00;;;;;;;6.90;3.67;;;26.30;35.80;;;;;;5080664;28;20587;-73
2022/05/09 12:16:54;;;;;;;6.47;4.13;;;26.30;33.00;;;;;;5030804;28;20961;-74
2022/05/09 12:19:40;;;;;;;5.47;4.23;;;26.30;31.60;;;;;;5028607;28;20472;-73
2022/05/09 12:22:47;;;;;;;4.50;4.03;;;26.50;31.80;;;;;;5076551;28;20470;-74
2022/05/09 12:26:03;;;;;;;7.67;4.10;;;26.60;32.00;;;;;;5080938;28;20505;-74
2022/05/09 12:28:48;;;;;;;4.80;3.50;;;26.70;35.20;;;;;;5089800;28;20500;-73
2022/05/09 12:31:44;;;;;;;5.87;4.00;;;26.60;33.80;;;;;;5081822;28;20503;-73
2022/05/09 12:34:37;;;;;;;6.13;4.07;;;26.20;31.60;;;;;;5087042;28;20486;-73
2022/05/09 12:37:24;;;;;;;9.77;4.50;;;25.80;34.30;;;;;;5089051;28;20958;-74
2022/05/09 12:40:20;;;;;;;6.57;4.07;;;25.50;34.40;;;;;;5088858;28;20477;-73
2022/05/09 12:43:07;;;;;;;5.50;3.80;;;25.60;36.30;;;;;;5079239;28;20990;-73
2022/05/09 12:45:53;;;;;;;10.30;4.03;;;25.90;33.70;;;;;;5091833;28;20450;-73
2022/05/09 12:48:42;;;;;;;6.33;4.00;;;26.20;34.10;;;;;;5088570;28;20429;-73
2022/05/09 12:51:29;;;;;;;5.53;3.90;;;26.50;34.60;;;;;;5087503;28;20995;-73
2022/05/09 12:54:19;;;;;;;6.20;3.63;;;26.70;32.60;;;;;;5083804;28;20461;-73
2022/05/09 12:57:06;;;;;;;7.00;3.70;;;26.60;29.70;;;;;;5091819;28;20580;-73
2022/05/09 12:59:54;;;;;;;5.10;4.13;;;26.60;34.50;;;;;;5084002;28;20552;-74
2022/05/09 13:02:40;;;;;;;4.77;3.63;;;26.90;36.90;;;;;;5079206;28;20809;-73
2022/05/09 13:05:38;;;;;;;4.67;4.00;;;27.20;33.40;;;;;;5086328;28;21040;-74
2022/05/09 13:08:26;;;;;;;5.73;3.90;;;27.10;28.20;;;;;;5082848;28;20470;-74
2022/05/09 13:11:15;;;;;;;6.77;3.90;;;27.10;29.00;;;;;;5080085;28;20457;-74
2022/05/09 13:14:10;;;;;;;10.27;4.07;;;27.10;28.60;;;;;;5083261;28;20468;-74
2022/05/09 13:16:58;;;;;;;5.03;3.77;;;26.70;28.70;;;;;;5089634;28;20446;-73
2022/05/09 13:19:47;;;;;;;7.23;4.50;;;26.80;29.10;;;;;;5098603;28;21009;-74
2022/05/09 13:22:38;;;;;;;4.37;3.33;;;27.00;30.00;;;;;;5095082;28;20538;-74
2022/05/09 13:25:31;;;;;;;6.73;3.97;;;27.10;30.00;;;;;;5090325;28;20454;-73
2022/05/09 13:28:20;;;;;;;9.50;4.43;;;27.40;30.80;;;;;;5095476;28;20429;-73
2022/05/09 13:31:06;;;;;;;10.27;4.00;;;27.70;30.30;;;;;;5075618;28;20607;-74
2022/05/09 13:33:52;;;;;;;4.93;3.83;;;27.60;28.10;;;;;;5089060;28;20438;-74
2022/05/09 13:36:41;;;;;;;5.67;3.30;;;27.80;27.40;;;;;;5078133;28;20447;-74
2022/05/09 13:39:30;;;;;;;6.60;3.77;;;27.70;29.00;;;;;;5098398;28;20542;-73
2022/05/09 13:42:22;;;;;;;6.07;3.90;;;27.60;27.70;;;;;;5087149;28;20923;-76
2022/05/09 13:45:14;;;;;;;6.70;4.20;;;27.00;25.60;;;;;;5095496;28;20469;-76
2022/05/09 13:48:06;;;;;;;5.33;3.13;;;26.80;27.00;;;;;;5096663;28;20434;-76
2022/05/09 13:50:54;;;;;;;4.87;4.03;;;27.00;29.20;;;;;;5087121;28;20442;-76
2022/05/09 13:53:49;;;;;;;6.20;3.47;;;27.40;28.60;;;;;;5088914;28;20463;-76
2022/05/09 13:56:38;;;;;;;4.53;3.20;;;27.70;27.70;;;;;;5094212;28;20898;-76
2022/05/09 13:59:24;;;;;;;5.23;3.30;;;27.90;25.30;;;;;;5076548;28;20473;-75
2022/05/09 14:02:12;;;;;;;4.13;3.50;;;27.20;26.00;;;;;;5086234;28;20437;-76
2022/05/09 14:05:05;;;;;;;5.33;3.80;;;27.40;27.80;;;;;;5099734;28;20461;-76
2022/05/09 14:07:52;;;;;;;6.47;4.07;;;27.60;28.50;;;;;;5088279;28;20435;-76
2022/05/09 14:10:42;;;;;;;15.90;4.10;;;27.90;28.00;;;;;;5087529;28;20504;-76
2022/05/09 14:13:42;;;;;;;4.90;3.87;;;27.50;24.80;;;;;;5100307;28;20420;-76
2022/05/09 14:16:34;;;;;;;9.50;4.10;;;27.40;26.80;;;;;;5092525;28;20426;-76
2022/05/09 14:19:25;;;;;;;5.27;3.70;;;27.50;26.20;;;;;;5096172;28;20501;-75
2022/05/09 14:22:13;;;;;;;5.93;3.83;;;27.70;26.70;;;;;;5088025;28;20463;-76
2022/05/09 14:31:29;;;;;;;6.77;3.87;;;27.40;26.30;;;;;;5082206;28;20496;-76
2022/05/09 14:34:31;;;;;;;4.77;3.50;;;27.30;26.60;;;;;;5104727;28;20552;-76
2022/05/09 14:37:27;;;;;;;6.53;3.83;;;27.50;25.40;;;;;;5086486;28;20428;-76
2022/05/09 14:40:20;;;;;;;3.90;3.50;;;27.60;24.80;;;;;;5077435;28;20469;-76
2022/05/09 14:43:08;;;;;;;6.63;3.43;;;27.50;25.20;;;;;;5083846;28;20417;-76
2022/05/09 14:46:02;;;;;;;4.80;3.37;;;27.60;27.10;;;;;;5104692;28;21084;-77
2022/05/09 14:48:49;;;;;;;4.43;3.90;;;27.80;25.30;;;;;;5109983;28;20447;-76
2022/05/09 14:51:35;;;;;;;6.83;3.20;;;27.70;26.80;;;;;;5099292;28;20913;-76
2022/05/09 14:54:21;;;;;;;7.90;3.80;;;27.70;26.90;;;;;;5099217;28;20454;-76
2022/05/09 14:57:27;;;;;;;6.90;3.13;;;27.80;27.70;;;;;;5095444;28;20425;-76